Tawakoni's Hourly Summary for Thursday, May 10, 2018
Hour Temp
(f)
RH
(%)
Solar Rad.
(MJ/m2)
Rainfall
(in)
Wind
(mph)
5/10/2018 12:00 AM 69 59 0 0 3.74
5/10/2018 1:00 AM 70 57 0 0 5.05
5/10/2018 2:00 AM 69 55 0 0 5.09
5/10/2018 3:00 AM 67 62 0 0 5.63
5/10/2018 4:00 AM 67 61 0 0 7.7
5/10/2018 5:00 AM 66 62 0 0 6.86
5/10/2018 6:00 AM 65 66 0 0 6.2
5/10/2018 7:00 AM 64 75 0.02 0 5.54
5/10/2018 8:00 AM 64 81 0.41 0 6.2
5/10/2018 9:00 AM 68 77 1.04 0 9.07
5/10/2018 10:00 AM 71 65 1.59 0 9.22
5/10/2018 11:00 AM 73 58 2.21 0 9.03
5/10/2018 12:00 PM 76 49 2.66 0 7.32
5/10/2018 1:00 PM 78 48 3.03 0 8.76
5/10/2018 2:00 PM 79 42 3.09 0 10.33
5/10/2018 3:00 PM 80 42 2.95 0 9.12
5/10/2018 4:00 PM 81 40 2.52 0 9.46
5/10/2018 5:00 PM 82 39 2.24 0 8.37
5/10/2018 6:00 PM 81 41 1.51 0 9.06
5/10/2018 7:00 PM 80 42 0.98 0 7.39
5/10/2018 8:00 PM 78 44 0.33 0 4.24
5/10/2018 9:00 PM 74 55 0.01 0 2.65
5/10/2018 10:00 PM 72 61 0 0 4.13
5/10/2018 11:00 PM 71 61 0 0 4.92
Data Summary 72 55 24.59 0.00 6.88